Time;durP1;ratioP1;P1;durP2;ratioP2;P2;SDS_P1;SDS_P2;PMS_P1;PMS_P2;Temp;Humidity;BMP_temperature;BMP_pressure;BME280_temperature;BME280_humidity;BME280_pressure;Samples;Min_cycle;Max_cycle;Signal;HPM_P1;HPM_P2
2022/03/22 00:01:08;;;;;;;14.97;13.70;;;4.90;81.60;;;;;;5030412;28;20712;-79
2022/03/22 00:03:35;;;;;;;14.33;13.10;;;5.20;81.50;;;;;;5029462;28;20630;-79
2022/03/22 00:06:03;;;;;;;15.17;13.33;;;4.70;80.90;;;;;;5030258;28;20646;-80
2022/03/22 00:08:30;;;;;;;15.97;14.47;;;4.80;80.70;;;;;;5028762;28;20634;-79
2022/03/22 00:10:57;;;;;;;15.57;14.23;;;4.70;82.30;;;;;;5029311;28;20705;-79
2022/03/22 00:13:24;;;;;;;14.70;13.40;;;4.90;82.90;;;;;;5030071;28;20634;-79
2022/03/22 00:15:51;;;;;;;15.73;14.20;;;5.00;82.10;;;;;;5032363;28;20638;-79
2022/03/22 00:18:20;;;;;;;15.47;14.17;;;5.00;81.90;;;;;;5028717;28;20628;-79
2022/03/22 00:20:46;;;;;;;15.43;14.00;;;4.80;82.00;;;;;;5030010;28;20646;-79
2022/03/22 00:23:14;;;;;;;15.57;14.30;;;4.70;83.30;;;;;;5030043;28;20672;-79
2022/03/22 00:25:41;;;;;;;14.57;13.27;;;4.60;85.00;;;;;;5028548;28;20630;-79
2022/03/22 00:28:07;;;;;;;15.03;13.73;;;4.70;85.10;;;;;;5028400;28;20704;-79
2022/03/22 00:30:35;;;;;;;16.93;15.30;;;4.80;85.70;;;;;;5028705;28;20711;-79
2022/03/22 00:33:04;;;;;;;15.50;14.10;;;4.60;85.90;;;;;;5028650;28;21024;-79
2022/03/22 00:35:36;;;;;;;15.30;13.90;;;4.60;86.60;;;;;;5034036;28;20690;-78
2022/03/22 00:38:05;;;;;;;16.03;14.73;;;4.60;87.90;;;;;;5026929;28;20649;-78
2022/03/22 00:40:31;;;;;;;16.43;15.07;;;4.40;88.80;;;;;;5032256;28;20657;-79
2022/03/22 00:42:59;;;;;;;19.30;15.30;;;4.70;90.30;;;;;;5027893;28;21250;-79
2022/03/22 00:45:28;;;;;;;14.03;12.83;;;4.40;90.10;;;;;;5028842;28;20630;-80
2022/03/22 00:47:57;;;;;;;15.40;14.20;;;4.60;90.00;;;;;;5028409;28;21199;-80
2022/03/22 00:50:27;;;;;;;15.30;14.10;;;4.40;90.20;;;;;;5030253;28;21035;-80
2022/03/22 00:52:56;;;;;;;15.37;14.03;;;4.50;90.70;;;;;;5025767;28;20658;-78
2022/03/22 00:55:24;;;;;;;16.70;15.13;;;4.40;90.50;;;;;;5035107;28;20719;-80
2022/03/22 00:57:52;;;;;;;15.43;14.10;;;4.40;90.70;;;;;;5028651;28;20633;-80
2022/03/22 01:00:20;;;;;;;16.00;14.53;;;4.30;90.90;;;;;;5032150;28;20645;-80
2022/03/22 01:02:49;;;;;;;17.30;15.70;;;4.20;91.00;;;;;;5029176;28;21004;-80
2022/03/22 01:05:19;;;;;;;15.87;14.57;;;4.30;90.70;;;;;;5032706;28;20646;-80
2022/03/22 01:07:48;;;;;;;16.83;15.30;;;4.50;91.70;;;;;;5026998;28;20708;-80
2022/03/22 01:10:18;;;;;;;17.17;15.57;;;4.30;91.90;;;;;;5032462;28;20658;-80
2022/03/22 01:12:46;;;;;;;16.00;14.70;;;4.50;91.80;;;;;;5033792;28;20629;-80
2022/03/22 01:15:15;;;;;;;15.80;14.50;;;4.30;92.30;;;;;;5028503;28;20633;-79
2022/03/22 01:17:42;;;;;;;16.77;15.47;;;4.20;93.00;;;;;;5027338;28;20633;-80
2022/03/22 01:20:10;;;;;;;17.53;16.10;;;3.60;93.80;;;;;;5024763;28;21240;-80
2022/03/22 01:22:39;;;;;;;18.70;16.80;;;4.20;95.10;;;;;;5026086;28;20774;-80
2022/03/22 01:25:08;;;;;;;18.27;16.67;;;4.10;96.00;;;;;;5028946;28;20723;-80
2022/03/22 01:27:36;;;;;;;18.40;16.40;;;4.10;96.50;;;;;;5028588;28;20632;-80
2022/03/22 01:30:05;;;;;;;20.67;18.80;;;4.20;96.50;;;;;;5028662;28;21251;-80
2022/03/22 01:32:32;;;;;;;18.70;17.00;;;4.10;96.60;;;;;;5029694;28;20624;-80
2022/03/22 01:34:58;;;;;;;19.97;18.20;;;3.90;97.10;;;;;;5028254;28;20618;-80
2022/03/22 01:37:25;;;;;;;20.43;18.33;;;4.10;97.70;;;;;;5029614;28;20623;-80
2022/03/22 01:39:52;;;;;;;17.87;16.37;;;4.10;99.10;;;;;;5035042;28;20674;-80
2022/03/22 01:42:19;;;;;;;17.17;15.63;;;3.90;99.90;;;;;;5032951;28;20663;-80
2022/03/22 01:44:47;;;;;;;18.40;16.70;;;3.90;99.90;;;;;;5028061;28;20679;-80
2022/03/22 01:47:16;;;;;;;18.30;16.63;;;3.90;99.90;;;;;;5029335;28;20633;-80
2022/03/22 01:49:43;;;;;;;20.60;18.80;;;4.00;99.90;;;;;;5029062;28;20660;-80
2022/03/22 01:52:14;;;;;;;19.40;17.70;;;3.50;99.90;;;;;;5026302;28;20607;-80
2022/03/22 01:54:41;;;;;;;19.03;17.23;;;3.60;99.90;;;;;;5027090;28;20624;-80
2022/03/22 01:57:10;;;;;;;18.67;16.93;;;3.50;99.90;;;;;;5028976;28;20629;-80
2022/03/22 01:59:37;;;;;;;18.00;16.40;;;3.60;99.90;;;;;;5027265;28;20657;-80
2022/03/22 02:07:36;;;;;;;20.20;18.50;;;3.30;99.90;;;;;;5026429;28;20611;-80
2022/03/22 02:10:04;;;;;;;20.90;19.17;;;3.40;99.90;;;;;;5029683;28;20673;-80
2022/03/22 02:12:31;;;;;;;19.77;18.07;;;3.60;99.90;;;;;;5030091;28;20636;-80
2022/03/22 02:14:58;;;;;;;20.50;18.70;;;3.30;99.90;;;;;;5026192;28;20993;-80
2022/03/22 02:17:26;;;;;;;21.83;19.50;;;3.40;99.90;;;;;;5026531;28;20633;-80
2022/03/22 02:19:53;;;;;;;19.57;17.97;;;3.30;99.90;;;;;;5026753;28;20652;-80
2022/03/22 02:22:26;;;;;;;19.60;17.93;;;3.40;99.90;;;;;;5026421;28;20675;-79
2022/03/22 02:24:54;;;;;;;20.40;18.77;;;3.20;99.90;;;;;;5027214;28;20643;-80
2022/03/22 02:27:21;;;;;;;19.00;17.50;;;3.10;99.90;;;;;;5027157;28;20642;-79
2022/03/22 02:29:47;;;;;;;18.70;17.07;;;3.30;99.90;;;;;;5028341;28;21311;-80
2022/03/22 02:32:14;;;;;;;19.50;17.87;;;3.20;99.90;;;;;;5027464;28;20632;-80
2022/03/22 02:34:41;;;;;;;19.97;18.37;;;3.10;99.90;;;;;;5031179;28;20616;-79
2022/03/22 02:37:07;;;;;;;18.20;16.70;;;2.60;99.90;;;;;;5035198;28;20992;-79
2022/03/22 02:39:34;;;;;;;19.13;17.53;;;3.10;99.90;;;;;;5027591;28;20662;-80
2022/03/22 02:42:03;;;;;;;19.63;18.03;;;3.00;99.90;;;;;;5028452;28;20667;-79
2022/03/22 02:44:29;;;;;;;20.50;18.90;;;3.00;99.90;;;;;;5028046;28;20634;-79
2022/03/22 02:46:56;;;;;;;20.13;18.20;;;3.10;99.90;;;;;;5027941;28;20632;-78
2022/03/22 02:49:23;;;;;;;20.20;18.10;;;3.00;99.90;;;;;;5026916;28;20986;-80
2022/03/22 02:51:50;;;;;;;19.10;17.60;;;2.70;99.90;;;;;;5029378;28;20998;-80
2022/03/22 02:54:17;;;;;;;21.80;19.80;;;2.90;99.90;;;;;;5025474;28;20620;-80
2022/03/22 02:56:43;;;;;;;20.53;18.83;;;3.00;99.90;;;;;;5030159;28;20639;-79
2022/03/22 02:59:11;;;;;;;19.97;18.10;;;2.90;99.90;;;;;;5028618;28;20621;-80
2022/03/22 03:01:38;;;;;;;21.10;19.40;;;2.90;99.90;;;;;;5028158;28;20629;-80
2022/03/22 03:04:05;;;;;;;20.67;18.87;;;2.90;99.90;;;;;;5026240;28;20682;-80
2022/03/22 03:06:32;;;;;;;20.13;18.50;;;3.00;99.90;;;;;;5027772;28;20727;-80
2022/03/22 03:08:59;;;;;;;20.73;19.03;;;2.90;99.90;;;;;;5024305;28;20659;-80
2022/03/22 03:11:27;;;;;;;22.00;20.07;;;2.70;99.90;;;;;;5027604;28;20682;-80
2022/03/22 03:16:40;;;;;;;20.97;19.17;;;2.40;99.90;;;;;;5022500;28;20570;-80
2022/03/22 03:19:07;;;;;;;25.07;22.43;;;2.80;99.90;;;;;;5029122;28;20657;-80
2022/03/22 03:21:34;;;;;;;21.27;19.27;;;2.80;99.90;;;;;;5025791;28;20661;-79
2022/03/22 03:24:01;;;;;;;22.57;20.10;;;2.70;99.90;;;;;;5026576;28;21079;-80
2022/03/22 03:26:28;;;;;;;24.67;21.90;;;2.60;99.90;;;;;;5026771;28;20631;-79
2022/03/22 03:28:55;;;;;;;23.67;21.70;;;2.60;99.90;;;;;;5025956;28;20734;-80
2022/03/22 03:31:22;;;;;;;22.90;20.97;;;2.50;99.90;;;;;;5028404;28;20655;-80
2022/03/22 03:33:50;;;;;;;23.83;21.90;;;2.50;99.90;;;;;;5030982;28;20630;-79
2022/03/22 03:36:17;;;;;;;23.60;21.57;;;2.40;99.90;;;;;;5032320;28;20658;-80
2022/03/22 03:38:43;;;;;;;23.77;21.87;;;2.50;99.90;;;;;;5029299;28;21185;-80
2022/03/22 03:43:55;;;;;;;22.77;20.97;;;2.60;99.90;;;;;;4989571;28;20658;-80
2022/03/22 03:49:07;;;;;;;24.50;22.40;;;2.30;99.90;;;;;;5030222;28;20605;-80
2022/03/22 03:51:35;;;;;;;23.53;21.73;;;2.50;99.90;;;;;;5030693;28;21287;-80
2022/03/22 03:54:02;;;;;;;22.97;21.00;;;2.40;99.90;;;;;;5029270;28;20624;-80
2022/03/22 03:56:29;;;;;;;22.50;20.80;;;2.40;99.90;;;;;;5033602;28;21166;-80
2022/03/22 03:58:57;;;;;;;22.00;20.17;;;2.40;99.90;;;;;;5029892;28;20981;-80
2022/03/22 04:01:24;;;;;;;23.53;21.60;;;2.40;99.90;;;;;;5026412;28;20719;-81
2022/03/22 04:03:50;;;;;;;24.87;22.67;;;2.60;99.90;;;;;;5028402;28;20674;-80
2022/03/22 04:06:18;;;;;;;23.17;21.30;;;2.30;99.90;;;;;;5030213;28;20626;-80
2022/03/22 04:08:45;;;;;;;22.20;20.33;;;2.50;99.90;;;;;;5029118;28;20667;-80
2022/03/22 04:11:12;;;;;;;24.33;21.97;;;2.50;99.90;;;;;;5031896;28;21124;-80
2022/03/22 04:13:38;;;;;;;23.73;21.83;;;2.20;99.90;;;;;;5026807;28;20996;-80
2022/03/22 04:16:06;;;;;;;22.83;20.93;;;2.20;99.90;;;;;;5032064;28;21177;-79
2022/03/22 04:18:34;;;;;;;23.63;21.50;;;2.40;99.90;;;;;;5029372;28;20615;-80
2022/03/22 04:21:02;;;;;;;23.87;21.97;;;2.30;99.90;;;;;;5031876;28;20704;-80
2022/03/22 04:23:30;;;;;;;22.43;20.63;;;2.20;99.90;;;;;;5030073;28;20659;-80
2022/03/22 04:25:58;;;;;;;23.80;21.80;;;2.20;99.90;;;;;;5031953;28;20693;-80
2022/03/22 04:33:54;;;;;;;23.83;21.87;;;2.10;99.90;;;;;;5031028;28;20997;-80
2022/03/22 04:36:21;;;;;;;23.70;21.53;;;2.10;99.90;;;;;;5029309;28;20623;-80
2022/03/22 04:38:49;;;;;;;23.67;21.83;;;2.00;99.90;;;;;;5029481;28;20630;-80
2022/03/22 04:41:17;;;;;;;22.73;20.80;;;2.20;99.90;;;;;;5029877;28;20658;-81
2022/03/22 04:43:44;;;;;;;24.43;22.10;;;2.30;99.90;;;;;;5029801;28;20708;-80
2022/03/22 04:46:10;;;;;;;21.13;19.23;;;2.30;99.90;;;;;;5029534;28;21184;-79
2022/03/22 04:48:37;;;;;;;22.07;20.17;;;2.00;99.90;;;;;;5030150;28;20623;-81
2022/03/22 04:56:46;;;;;;;24.43;22.43;;;1.80;99.90;;;;;;5033829;28;20617;-80
2022/03/22 04:59:13;;;;;;;23.67;21.67;;;2.10;99.90;;;;;;5030712;28;20716;-80
2022/03/22 05:01:40;;;;;;;24.60;22.40;;;2.10;99.90;;;;;;5030213;28;20618;-80
2022/03/22 05:04:07;;;;;;;22.83;20.83;;;2.00;99.90;;;;;;5029066;28;20637;-80
2022/03/22 05:06:35;;;;;;;22.57;20.67;;;1.80;99.90;;;;;;5028353;28;21025;-80
2022/03/22 05:09:04;;;;;;;25.33;23.33;;;1.90;99.90;;;;;;5024379;28;20642;-80
2022/03/22 05:11:31;;;;;;;24.77;22.77;;;1.80;99.90;;;;;;5028220;28;20658;-80
2022/03/22 05:13:58;;;;;;;24.40;22.40;;;2.10;99.90;;;;;;5027344;28;20756;-80
2022/03/22 05:16:25;;;;;;;27.20;24.97;;;2.00;99.90;;;;;;5028188;28;20658;-80
2022/03/22 05:18:52;;;;;;;26.10;23.93;;;1.90;99.90;;;;;;5027117;28;20638;-80
2022/03/22 05:21:19;;;;;;;26.03;23.80;;;1.80;99.90;;;;;;5027300;28;20690;-80
2022/03/22 05:23:46;;;;;;;25.07;22.97;;;2.00;99.90;;;;;;5026321;28;20646;-78
2022/03/22 05:26:15;;;;;;;26.10;23.97;;;2.00;99.90;;;;;;5027850;28;20622;-81
2022/03/22 05:28:42;;;;;;;25.67;23.47;;;1.70;99.90;;;;;;4988680;28;1095520;-80
2022/03/22 05:31:10;;;;;;;25.53;23.43;;;1.80;99.90;;;;;;5028815;28;21300;-80
2022/03/22 05:33:37;;;;;;;26.50;24.20;;;1.90;99.90;;;;;;5028570;28;20673;-81
2022/03/22 05:36:04;;;;;;;23.90;21.83;;;1.90;99.90;;;;;;5029555;28;21691;-81
2022/03/22 05:38:31;;;;;;;24.77;22.63;;;2.00;99.90;;;;;;5027057;28;20614;-80
2022/03/22 05:40:58;;;;;;;23.63;21.70;;;1.70;99.90;;;;;;5028290;28;20677;-80
2022/03/22 05:43:26;;;;;;;24.37;22.30;;;1.80;99.90;;;;;;5028903;28;20627;-79
2022/03/22 05:45:53;;;;;;;25.87;23.63;;;2.00;99.90;;;;;;5027157;28;21154;-79
2022/03/22 05:48:20;;;;;;;24.47;22.17;;;2.00;99.90;;;;;;5027488;28;20630;-81
2022/03/22 05:50:47;;;;;;;23.20;21.10;;;2.20;99.90;;;;;;5026841;28;20989;-81
2022/03/22 05:53:15;;;;;;;22.67;20.77;;;1.90;99.90;;;;;;5024914;28;20673;-79
2022/03/22 05:55:42;;;;;;;24.03;21.93;;;2.00;99.90;;;;;;5031226;28;20657;-80
2022/03/22 05:58:09;;;;;;;23.07;21.17;;;2.00;99.90;;;;;;5028071;28;20638;-79
2022/03/22 06:00:38;;;;;;;23.67;21.70;;;2.00;99.90;;;;;;5028539;28;20623;-80
2022/03/22 06:03:05;;;;;;;24.30;22.30;;;2.00;99.90;;;;;;5026957;28;21161;-80
2022/03/22 06:05:31;;;;;;;23.83;21.63;;;2.10;99.90;;;;;;5026924;28;20974;-79
2022/03/22 06:08:00;;;;;;;23.93;21.93;;;2.10;99.90;;;;;;5025290;28;20651;-80
2022/03/22 06:10:28;;;;;;;21.80;19.90;;;2.20;99.90;;;;;;5027155;28;20645;-78
2022/03/22 06:12:56;;;;;;;22.30;20.50;;;1.80;99.90;;;;;;5026717;28;20634;-80
2022/03/22 06:15:24;;;;;;;21.90;20.10;;;2.20;99.90;;;;;;5030000;28;20634;-80
2022/03/22 06:17:56;;;;;;;21.73;19.80;;;2.20;99.90;;;;;;5028546;28;20863;-79
2022/03/22 06:20:25;;;;;;;21.47;19.50;;;2.40;99.90;;;;;;5029013;28;20651;-79
2022/03/22 06:22:52;;;;;;;20.93;19.03;;;2.30;99.90;;;;;;5025841;28;20982;-80
2022/03/22 06:25:19;;;;;;;22.47;20.40;;;2.70;99.90;;;;;;5026805;28;21157;-80
2022/03/22 06:27:49;;;;;;;23.27;21.20;;;2.70;99.90;;;;;;5026518;28;20635;-80
2022/03/22 06:30:17;;;;;;;22.43;20.53;;;2.80;99.90;;;;;;5027909;28;20658;-79
2022/03/22 06:32:46;;;;;;;22.10;20.17;;;3.00;99.90;;;;;;5027310;28;20649;-79
2022/03/22 06:35:15;;;;;;;23.47;21.27;;;3.20;99.90;;;;;;5026567;28;20681;-81
2022/03/22 06:37:43;;;;;;;21.70;19.90;;;3.20;99.90;;;;;;5026779;28;20631;-81
2022/03/22 06:40:11;;;;;;;21.30;19.43;;;3.30;99.90;;;;;;5024909;28;21020;-81
2022/03/22 06:42:38;;;;;;;22.37;20.50;;;3.50;99.90;;;;;;5027002;28;20630;-80
2022/03/22 06:45:07;;;;;;;22.00;19.93;;;3.60;99.90;;;;;;5028006;28;20614;-80
2022/03/22 06:47:35;;;;;;;22.27;20.37;;;3.70;99.90;;;;;;5027614;28;20656;-79
2022/03/22 06:50:03;;;;;;;21.80;19.90;;;3.70;99.90;;;;;;5027543;28;20640;-81
2022/03/22 06:52:31;;;;;;;22.13;20.30;;;3.80;99.90;;;;;;5024795;28;20640;-81
2022/03/22 06:54:58;;;;;;;21.40;19.37;;;4.30;99.90;;;;;;5027250;28;21052;-81
2022/03/22 06:57:27;;;;;;;20.20;18.40;;;4.20;99.90;;;;;;5027949;28;20674;-80
2022/03/22 06:59:53;;;;;;;21.33;19.40;;;4.30;99.90;;;;;;5025875;28;20632;-80
2022/03/22 07:02:20;;;;;;;19.13;17.53;;;4.40;99.90;;;;;;5027291;28;20997;-80
2022/03/22 07:04:48;;;;;;;20.40;18.60;;;4.10;99.90;;;;;;5028420;28;20653;-80
2022/03/22 07:07:15;;;;;;;21.20;19.30;;;4.60;99.90;;;;;;5026775;28;20682;-80
2022/03/22 07:09:43;;;;;;;23.73;21.37;;;4.90;99.90;;;;;;5025617;28;20727;-80
2022/03/22 07:12:10;;;;;;;23.90;21.33;;;4.90;99.90;;;;;;5024906;28;20647;-80
2022/03/22 07:14:40;;;;;;;24.87;22.47;;;4.90;99.90;;;;;;5025365;28;20668;-79
2022/03/22 07:17:08;;;;;;;23.13;20.93;;;5.00;99.90;;;;;;5025276;28;20665;-80
2022/03/22 07:19:35;;;;;;;24.53;22.03;;;5.20;99.90;;;;;;5025538;28;20672;-80
2022/03/22 07:22:02;;;;;;;26.03;23.43;;;5.00;99.90;;;;;;5025408;28;21069;-80
2022/03/22 07:24:29;;;;;;;23.10;20.77;;;5.00;99.90;;;;;;5024878;28;20622;-79
2022/03/22 07:26:57;;;;;;;24.03;21.80;;;5.30;99.90;;;;;;5026923;28;21017;-79
2022/03/22 07:29:24;;;;;;;22.67;20.63;;;5.20;99.90;;;;;;5025515;28;20642;-80
2022/03/22 07:31:51;;;;;;;22.67;20.50;;;4.80;99.90;;;;;;5022115;28;20834;-81
2022/03/22 07:34:19;;;;;;;24.37;21.63;;;5.30;99.90;;;;;;5026246;28;20647;-81
2022/03/22 07:36:46;;;;;;;23.87;21.30;;;5.50;99.90;;;;;;5024858;28;20666;-81
2022/03/22 07:39:14;;;;;;;22.93;20.50;;;5.40;99.90;;;;;;5026501;28;20708;-80
2022/03/22 07:41:43;;;;;;;24.73;19.83;;;5.80;99.90;;;;;;5025861;28;20630;-81
2022/03/22 07:44:12;;;;;;;23.40;21.30;;;5.80;99.90;;;;;;5025613;28;20626;-82
2022/03/22 07:46:39;;;;;;;23.40;21.00;;;6.00;99.40;;;;;;5025280;28;20744;-82
2022/03/22 07:54:35;;;;;;;25.00;22.53;;;6.00;98.20;;;;;;5023543;28;20680;-80
2022/03/22 07:57:02;;;;;;;25.70;23.03;;;6.20;98.70;;;;;;5025121;28;20662;-81
2022/03/22 07:59:31;;;;;;;26.47;24.17;;;6.30;98.20;;;;;;5024348;28;20623;-81
2022/03/22 08:01:58;;;;;;;26.97;24.57;;;5.90;98.00;;;;;;5026480;28;20638;-81
2022/03/22 08:04:24;;;;;;;27.17;24.53;;;6.30;97.60;;;;;;5026006;28;20622;-82
2022/03/22 08:06:52;;;;;;;26.57;23.93;;;6.70;97.00;;;;;;5025628;28;20684;-81
2022/03/22 08:09:19;;;;;;;25.30;22.70;;;6.70;96.80;;;;;;5024853;28;20638;-80
2022/03/22 08:11:45;;;;;;;26.60;24.17;;;6.50;96.50;;;;;;5026373;28;20653;-80
2022/03/22 08:14:13;;;;;;;24.03;21.67;;;6.80;96.50;;;;;;5025342;28;20670;-81
2022/03/22 08:16:42;;;;;;;23.43;20.80;;;6.70;96.20;;;;;;5023999;28;20990;-81
2022/03/22 08:19:11;;;;;;;22.57;20.40;;;7.40;95.90;;;;;;5031028;28;21177;-81
2022/03/22 08:21:38;;;;;;;22.40;19.30;;;7.00;95.30;;;;;;5027426;28;21240;-80
2022/03/22 08:24:05;;;;;;;23.53;21.33;;;7.70;95.20;;;;;;5028777;28;20619;-81
2022/03/22 08:26:32;;;;;;;22.17;19.97;;;7.60;95.30;;;;;;5028976;28;20642;-81
2022/03/22 08:28:59;;;;;;;20.63;18.60;;;7.70;95.20;;;;;;5030952;28;20683;-81
2022/03/22 08:31:26;;;;;;;21.10;19.10;;;7.60;95.20;;;;;;5027829;28;20640;-80
2022/03/22 08:33:56;;;;;;;21.60;19.50;;;7.70;94.60;;;;;;5028904;28;20664;-81
2022/03/22 08:36:23;;;;;;;22.10;19.03;;;8.00;94.10;;;;;;5024301;28;20661;-81
2022/03/22 08:38:50;;;;;;;19.83;18.00;;;7.90;93.80;;;;;;5030327;28;20633;-81
2022/03/22 08:41:16;;;;;;;20.20;18.17;;;7.80;93.90;;;;;;5032098;28;20638;-81
2022/03/22 08:43:43;;;;;;;19.80;17.77;;;8.40;92.90;;;;;;5028548;28;20627;-81
2022/03/22 08:46:11;;;;;;;20.30;18.40;;;8.70;92.40;;;;;;5027996;28;21288;-81
2022/03/22 08:48:38;;;;;;;19.47;17.57;;;8.70;91.50;;;;;;5026937;28;20619;-81
2022/03/22 08:51:06;;;;;;;18.47;16.77;;;8.50;91.30;;;;;;5028777;28;20704;-81
2022/03/22 08:53:33;;;;;;;19.07;17.37;;;8.90;90.90;;;;;;5027346;28;20613;-81
2022/03/22 08:56:03;;;;;;;19.40;17.50;;;8.80;90.40;;;;;;5025522;28;20732;-81
2022/03/22 08:58:30;;;;;;;18.47;16.63;;;8.90;90.10;;;;;;5028256;28;20626;-81
2022/03/22 09:00:57;;;;;;;20.90;17.00;;;9.30;90.10;;;;;;5028782;28;21220;-81
2022/03/22 09:03:26;;;;;;;17.90;16.10;;;9.60;89.80;;;;;;5029467;28;20825;-81
2022/03/22 09:06:12;;;;;;;18.83;16.93;;;9.60;88.80;;;;;;5026925;28;20677;-80
2022/03/22 09:08:42;;;;;;;19.43;17.33;;;9.40;88.80;;;;;;5024469;28;20631;-80
2022/03/22 09:11:09;;;;;;;18.87;16.07;;;9.90;88.20;;;;;;5027498;28;20631;-80
2022/03/22 09:13:37;;;;;;;18.13;15.77;;;9.60;87.10;;;;;;5027072;28;20633;-80
2022/03/22 09:16:05;;;;;;;18.73;16.93;;;10.10;86.10;;;;;;5027921;28;21211;-80
2022/03/22 09:18:32;;;;;;;19.50;17.40;;;10.10;85.70;;;;;;5027393;28;20634;-80
2022/03/22 09:20:58;;;;;;;18.40;16.60;;;10.30;85.40;;;;;;5028140;28;20638;-80
2022/03/22 09:23:25;;;;;;;22.30;16.90;;;9.90;84.90;;;;;;5028863;28;20641;-80
2022/03/22 09:25:54;;;;;;;21.27;15.90;;;10.30;84.10;;;;;;5026552;28;20654;-80
2022/03/22 09:28:21;;;;;;;18.10;16.30;;;10.00;83.40;;;;;;5027077;28;20712;-80
2022/03/22 09:30:49;;;;;;;19.13;16.97;;;10.30;83.10;;;;;;5026247;28;20626;-80
2022/03/22 09:33:15;;;;;;;17.70;15.93;;;10.60;82.50;;;;;;5025289;28;20615;-80
2022/03/22 09:35:43;;;;;;;19.30;17.30;;;10.70;82.70;;;;;;5028095;28;20670;-80
2022/03/22 09:38:12;;;;;;;19.90;17.90;;;10.80;83.10;;;;;;5021206;28;20638;-79
2022/03/22 09:40:38;;;;;;;21.03;16.03;;;10.90;82.20;;;;;;5029926;28;20629;-81
2022/03/22 09:43:09;;;;;;;20.10;17.83;;;11.00;82.60;;;;;;5022488;28;20629;-80
2022/03/22 09:45:36;;;;;;;18.70;16.70;;;11.10;81.30;;;;;;5027533;28;20657;-80
2022/03/22 09:48:04;;;;;;;20.37;17.73;;;11.20;80.40;;;;;;5026398;28;20621;-80
2022/03/22 09:53:17;;;;;;;19.60;17.60;;;11.10;79.40;;;;;;5025256;28;20979;-80
2022/03/22 09:55:45;;;;;;;18.83;16.90;;;11.50;80.20;;;;;;5032918;28;20864;-81
2022/03/22 09:58:14;;;;;;;21.67;19.37;;;11.70;80.30;;;;;;5025553;28;20622;-80
2022/03/22 10:00:40;;;;;;;20.30;18.07;;;11.80;79.50;;;;;;5027107;28;20979;-80
2022/03/22 10:03:07;;;;;;;18.87;17.07;;;12.00;79.50;;;;;;5019152;28;20638;-80
2022/03/22 10:05:34;;;;;;;19.97;17.87;;;12.30;79.10;;;;;;5025801;28;20633;-80
2022/03/22 10:08:05;;;;;;;18.40;16.50;;;12.50;77.30;;;;;;5026033;28;20642;-80
2022/03/22 10:10:32;;;;;;;19.43;17.30;;;12.70;77.00;;;;;;5025020;28;20900;-81
2022/03/22 10:13:00;;;;;;;18.70;16.47;;;13.00;77.30;;;;;;5022670;28;20619;-80
2022/03/22 10:15:33;;;;;;;21.60;16.40;;;13.20;75.30;;;;;;5028509;28;20771;-80
2022/03/22 10:18:05;;;;;;;19.90;17.47;;;13.40;75.90;;;;;;5023932;28;20982;-81
2022/03/22 10:20:34;;;;;;;19.53;17.63;;;13.70;75.20;;;;;;5026354;28;20698;-81
2022/03/22 10:23:03;;;;;;;21.63;17.83;;;14.00;74.10;;;;;;5026536;28;20630;-82
2022/03/22 10:25:32;;;;;;;17.27;15.47;;;14.30;71.30;;;;;;5027733;28;20626;-81
2022/03/22 10:28:00;;;;;;;16.23;14.53;;;14.60;69.50;;;;;;5024320;28;21267;-80
2022/03/22 10:30:28;;;;;;;19.13;15.93;;;15.00;67.20;;;;;;5026583;28;20639;-80
2022/03/22 10:32:56;;;;;;;21.67;16.50;;;15.20;65.70;;;;;;5021750;28;20635;-80
2022/03/22 10:35:26;;;;;;;16.57;14.10;;;15.50;65.80;;;;;;5027650;28;20666;-80
2022/03/22 10:37:54;;;;;;;18.93;16.87;;;15.80;66.30;;;;;;5025378;28;20988;-81
2022/03/22 10:40:24;;;;;;;24.93;16.57;;;15.90;63.70;;;;;;5028759;28;20610;-81
2022/03/22 10:42:51;;;;;;;20.50;18.60;;;16.10;63.30;;;;;;5027960;28;20642;-81
2022/03/22 10:45:18;;;;;;;22.33;20.10;;;16.20;61.70;;;;;;5027818;28;20610;-82
2022/03/22 10:47:46;;;;;;;18.83;16.90;;;16.40;60.50;;;;;;5025539;28;20662;-81
2022/03/22 10:50:14;;;;;;;20.70;18.70;;;16.60;61.70;;;;;;5027904;28;21207;-81
2022/03/22 10:52:52;;;;;;;20.57;18.57;;;16.80;58.90;;;;;;5024881;28;20630;-80
2022/03/22 10:55:23;;;;;;;19.70;17.10;;;16.80;58.70;;;;;;5022642;28;20647;-80
2022/03/22 10:57:53;;;;;;;21.50;18.20;;;17.10;58.20;;;;;;5024603;28;20627;-82
2022/03/22 11:00:21;;;;;;;20.00;17.57;;;17.30;57.40;;;;;;5026930;28;20618;-80
2022/03/22 11:02:53;;;;;;;18.43;16.53;;;17.30;56.60;;;;;;5025992;28;20630;-80
2022/03/22 11:05:23;;;;;;;20.80;18.70;;;17.60;56.40;;;;;;5025583;28;20613;-81
2022/03/22 11:07:51;;;;;;;19.70;17.70;;;17.80;55.50;;;;;;5026941;28;21093;-80
2022/03/22 11:10:20;;;;;;;18.90;16.40;;;18.00;54.20;;;;;;5028176;28;20627;-81
2022/03/22 11:12:47;;;;;;;17.80;15.90;;;18.30;53.80;;;;;;5022953;28;21211;-81
2022/03/22 11:15:15;;;;;;;18.90;16.97;;;18.60;53.70;;;;;;5025863;28;20767;-82
2022/03/22 11:17:43;;;;;;;19.30;17.30;;;18.90;52.70;;;;;;5026618;28;20720;-82
2022/03/22 11:20:13;;;;;;;18.83;17.13;;;19.20;51.80;;;;;;5025277;28;20654;-81
2022/03/22 11:22:47;;;;;;;19.23;17.03;;;19.30;50.70;;;;;;5025277;28;20922;-81
2022/03/22 11:25:18;;;;;;;19.90;17.90;;;19.50;50.70;;;;;;5024509;28;21055;-81
2022/03/22 11:27:56;;;;;;;19.73;17.77;;;19.40;49.50;;;;;;5028048;28;21696;-82
2022/03/22 11:30:23;;;;;;;19.53;17.63;;;19.50;49.70;;;;;;5024632;28;20615;-81
2022/03/22 11:35:46;;;;;;;20.47;18.47;;;20.20;49.10;;;;;;5025004;28;20651;-82
2022/03/22 11:38:34;;;;;;;19.90;18.00;;;20.60;48.10;;;;;;5024375;28;20634;-82
2022/03/22 11:43:45;;;;;;;20.37;18.47;;;20.90;46.70;;;;;;5028239;28;20574;-81
2022/03/22 11:46:12;;;;;;;30.60;18.57;;;21.00;46.30;;;;;;5025811;28;20669;-82
2022/03/22 11:48:40;;;;;;;20.43;18.43;;;21.40;46.60;;;;;;5025536;28;20623;-81
2022/03/22 11:51:08;;;;;;;20.20;18.20;;;21.60;46.30;;;;;;5026966;28;20753;-81
2022/03/22 11:53:44;;;;;;;19.87;18.00;;;21.90;45.70;;;;;;5027938;28;21005;-81
2022/03/22 11:56:12;;;;;;;19.93;18.23;;;22.10;45.40;;;;;;5030174;28;20682;-82
2022/03/22 11:58:49;;;;;;;20.93;18.90;;;22.10;44.60;;;;;;5028325;28;20622;-81
2022/03/22 12:01:16;;;;;;;19.53;17.80;;;22.10;44.50;;;;;;5028250;28;21029;-81
2022/03/22 12:03:51;;;;;;;20.40;18.50;;;22.40;44.20;;;;;;5028394;28;20682;-81
2022/03/22 12:06:19;;;;;;;20.47;18.73;;;22.60;43.90;;;;;;5030261;28;20677;-80
2022/03/22 12:08:48;;;;;;;20.37;18.30;;;22.60;44.10;;;;;;5028362;28;20760;-81
2022/03/22 12:11:16;;;;;;;19.10;17.30;;;23.20;43.80;;;;;;5028104;28;20633;-81
2022/03/22 12:13:49;;;;;;;20.77;18.90;;;23.40;44.40;;;;;;5027199;28;20685;-81
2022/03/22 12:16:17;;;;;;;20.27;18.27;;;23.90;43.80;;;;;;5028010;28;21100;-81
2022/03/22 12:18:43;;;;;;;19.63;17.87;;;23.90;42.80;;;;;;5028446;28;20649;-81
2022/03/22 12:21:17;;;;;;;19.30;17.63;;;24.00;42.50;;;;;;5028883;28;21137;-81
2022/03/22 12:23:45;;;;;;;19.17;17.47;;;24.20;42.10;;;;;;5028499;28;20607;-82
2022/03/22 12:26:13;;;;;;;20.13;18.40;;;24.30;41.80;;;;;;5030874;28;20648;-82
2022/03/22 12:28:47;;;;;;;19.90;18.00;;;24.50;41.50;;;;;;5028365;28;20622;-82
2022/03/22 12:31:13;;;;;;;19.30;17.80;;;24.50;40.30;;;;;;5032655;28;20722;-82
2022/03/22 12:33:40;;;;;;;21.77;20.00;;;24.40;40.40;;;;;;5027321;28;20622;-82
2022/03/22 12:36:07;;;;;;;20.43;18.70;;;24.40;40.00;;;;;;5028157;28;21014;-82
2022/03/22 12:38:34;;;;;;;20.57;18.83;;;24.40;39.70;;;;;;5028489;28;20630;-82
2022/03/22 12:41:01;;;;;;;20.03;18.33;;;24.30;39.60;;;;;;5027089;28;20621;-82
2022/03/22 12:43:29;;;;;;;21.53;19.57;;;24.50;39.60;;;;;;5031273;28;20623;-81
2022/03/22 12:45:58;;;;;;;20.30;18.47;;;24.70;39.30;;;;;;5029697;28;20885;-82
2022/03/22 12:48:25;;;;;;;20.93;19.23;;;24.80;38.70;;;;;;5028755;28;20634;-82
2022/03/22 12:50:52;;;;;;;21.73;19.83;;;24.70;38.50;;;;;;5024429;28;21189;-82
2022/03/22 12:53:19;;;;;;;20.40;18.80;;;24.80;38.50;;;;;;5027982;28;20654;-82
2022/03/22 12:55:46;;;;;;;20.03;18.20;;;24.80;38.20;;;;;;5027100;28;21358;-82
2022/03/22 12:58:13;;;;;;;20.93;18.77;;;25.20;37.80;;;;;;5027820;28;20765;-81
2022/03/22 13:00:42;;;;;;;20.80;18.73;;;25.10;37.40;;;;;;5027039;28;20614;-82
2022/03/22 13:03:11;;;;;;;20.60;18.27;;;24.90;37.60;;;;;;5027571;28;20761;-82
2022/03/22 13:05:41;;;;;;;19.70;17.87;;;24.80;37.60;;;;;;5028224;28;20750;-82
2022/03/22 13:08:12;;;;;;;20.13;18.33;;;24.80;37.30;;;;;;5027051;28;20638;-82
2022/03/22 13:13:24;;;;;;;19.33;17.73;;;24.60;37.20;;;;;;5028647;28;20645;-82
2022/03/22 13:15:52;;;;;;;21.07;19.03;;;25.20;37.20;;;;;;5028597;28;20675;-82
2022/03/22 13:18:19;;;;;;;17.93;16.33;;;25.50;36.70;;;;;;5024471;28;20657;-81